sensor_id;sensor_type;location;lat;lon;timestamp;P1;durP1;ratioP1;P2;durP2;ratioP2
29002;SDS011;16102;57.138;-2.118;2022-11-15T00:00:56;10.48;;;5.90;;
29002;SDS011;16102;57.138;-2.118;2022-11-15T00:03:24;9.57;;;6.53;;
29002;SDS011;16102;57.138;-2.118;2022-11-15T00:05:53;12.93;;;8.18;;
29002;SDS011;16102;57.138;-2.118;2022-11-15T00:08:20;9.57;;;5.60;;
29002;SDS011;16102;57.138;-2.118;2022-11-15T00:10:54;16.58;;;8.48;;
29002;SDS011;16102;57.138;-2.118;2022-11-15T00:13:22;10.77;;;7.22;;
29002;SDS011;16102;57.138;-2.118;2022-11-15T00:15:49;12.32;;;6.40;;
29002;SDS011;16102;57.138;-2.118;2022-11-15T00:18:16;11.68;;;6.63;;
29002;SDS011;16102;57.138;-2.118;2022-11-15T00:20:43;15.27;;;8.35;;
29002;SDS011;16102;57.138;-2.118;2022-11-15T00:23:10;16.00;;;8.43;;
29002;SDS011;16102;57.138;-2.118;2022-11-15T00:25:38;11.90;;;7.00;;
29002;SDS011;16102;57.138;-2.118;2022-11-15T00:28:05;11.27;;;6.30;;
29002;SDS011;16102;57.138;-2.118;2022-11-15T00:30:32;9.07;;;6.38;;
29002;SDS011;16102;57.138;-2.118;2022-11-15T00:33:01;14.80;;;8.63;;
29002;SDS011;16102;57.138;-2.118;2022-11-15T00:35:31;17.75;;;10.13;;
29002;SDS011;16102;57.138;-2.118;2022-11-15T00:37:59;13.65;;;7.28;;
29002;SDS011;16102;57.138;-2.118;2022-11-15T00:40:27;11.55;;;7.05;;
29002;SDS011;16102;57.138;-2.118;2022-11-15T00:42:54;11.45;;;7.80;;
29002;SDS011;16102;57.138;-2.118;2022-11-15T00:45:21;12.18;;;7.30;;
29002;SDS011;16102;57.138;-2.118;2022-11-15T00:47:48;13.77;;;8.07;;
29002;SDS011;16102;57.138;-2.118;2022-11-15T00:50:16;14.35;;;8.98;;
29002;SDS011;16102;57.138;-2.118;2022-11-15T00:52:43;10.95;;;7.88;;
29002;SDS011;16102;57.138;-2.118;2022-11-15T00:55:14;13.70;;;6.90;;
29002;SDS011;16102;57.138;-2.118;2022-11-15T00:57:44;13.88;;;6.78;;
29002;SDS011;16102;57.138;-2.118;2022-11-15T01:00:11;15.00;;;8.02;;
29002;SDS011;16102;57.138;-2.118;2022-11-15T01:02:39;11.63;;;6.63;;
29002;SDS011;16102;57.138;-2.118;2022-11-15T01:05:06;9.68;;;5.97;;
29002;SDS011;16102;57.138;-2.118;2022-11-15T01:07:34;12.20;;;7.15;;
29002;SDS011;16102;57.138;-2.118;2022-11-15T01:10:02;16.15;;;8.55;;
29002;SDS011;16102;57.138;-2.118;2022-11-15T01:12:29;11.98;;;7.20;;
29002;SDS011;16102;57.138;-2.118;2022-11-15T01:14:57;15.75;;;8.00;;
29002;SDS011;16102;57.138;-2.118;2022-11-15T01:17:24;11.50;;;7.03;;
29002;SDS011;16102;57.138;-2.118;2022-11-15T01:19:51;11.68;;;6.88;;
29002;SDS011;16102;57.138;-2.118;2022-11-15T01:22:18;10.60;;;6.13;;
29002;SDS011;16102;57.138;-2.118;2022-11-15T01:24:45;12.90;;;6.60;;
29002;SDS011;16102;57.138;-2.118;2022-11-15T01:27:12;16.15;;;6.22;;
29002;SDS011;16102;57.138;-2.118;2022-11-15T01:29:39;9.02;;;5.45;;
29002;SDS011;16102;57.138;-2.118;2022-11-15T01:32:06;12.95;;;6.63;;
29002;SDS011;16102;57.138;-2.118;2022-11-15T01:34:33;10.90;;;5.70;;
29002;SDS011;16102;57.138;-2.118;2022-11-15T01:37:00;17.27;;;9.52;;
29002;SDS011;16102;57.138;-2.118;2022-11-15T01:39:28;11.23;;;5.97;;
29002;SDS011;16102;57.138;-2.118;2022-11-15T01:41:55;10.45;;;5.50;;
29002;SDS011;16102;57.138;-2.118;2022-11-15T01:47:08;8.60;;;6.43;;
29002;SDS011;16102;57.138;-2.118;2022-11-15T01:49:45;14.25;;;7.28;;
29002;SDS011;16102;57.138;-2.118;2022-11-15T01:52:22;13.32;;;7.10;;
29002;SDS011;16102;57.138;-2.118;2022-11-15T01:55:34;15.55;;;9.57;;
29002;SDS011;16102;57.138;-2.118;2022-11-15T01:57:46;13.30;;;8.98;;
29002;SDS011;16102;57.138;-2.118;2022-11-15T02:00:16;12.07;;;7.07;;
29002;SDS011;16102;57.138;-2.118;2022-11-15T02:02:44;13.57;;;7.13;;
29002;SDS011;16102;57.138;-2.118;2022-11-15T02:05:11;9.55;;;6.63;;
29002;SDS011;16102;57.138;-2.118;2022-11-15T02:07:37;14.57;;;8.32;;
29002;SDS011;16102;57.138;-2.118;2022-11-15T02:10:09;10.40;;;6.25;;
29002;SDS011;16102;57.138;-2.118;2022-11-15T02:12:38;18.23;;;9.00;;
29002;SDS011;16102;57.138;-2.118;2022-11-15T02:15:06;20.75;;;8.60;;
29002;SDS011;16102;57.138;-2.118;2022-11-15T02:37:48;15.75;;;8.52;;
29002;SDS011;16102;57.138;-2.118;2022-11-15T02:43:00;10.57;;;6.50;;
29002;SDS011;16102;57.138;-2.118;2022-11-15T02:45:56;12.32;;;7.63;;
29002;SDS011;16102;57.138;-2.118;2022-11-15T02:48:30;15.30;;;8.23;;
29002;SDS011;16102;57.138;-2.118;2022-11-15T02:50:58;10.35;;;6.50;;
29002;SDS011;16102;57.138;-2.118;2022-11-15T02:53:26;8.55;;;6.22;;
29002;SDS011;16102;57.138;-2.118;2022-11-15T02:56:00;12.27;;;7.40;;
29002;SDS011;16102;57.138;-2.118;2022-11-15T03:04:11;17.98;;;7.10;;
29002;SDS011;16102;57.138;-2.118;2022-11-15T03:07:24;12.75;;;6.70;;
29002;SDS011;16102;57.138;-2.118;2022-11-15T03:10:12;16.35;;;7.13;;
29002;SDS011;16102;57.138;-2.118;2022-11-15T03:15:38;12.55;;;6.32;;
29002;SDS011;16102;57.138;-2.118;2022-11-15T03:18:12;10.93;;;5.88;;
29002;SDS011;16102;57.138;-2.118;2022-11-15T03:20:50;8.85;;;5.25;;
29002;SDS011;16102;57.138;-2.118;2022-11-15T03:23:18;8.68;;;5.38;;
29002;SDS011;16102;57.138;-2.118;2022-11-15T03:25:46;9.15;;;5.70;;
29002;SDS011;16102;57.138;-2.118;2022-11-15T03:28:21;8.70;;;4.65;;
29002;SDS011;16102;57.138;-2.118;2022-11-15T03:30:51;10.63;;;4.93;;
29002;SDS011;16102;57.138;-2.118;2022-11-15T03:33:20;16.00;;;7.03;;
29002;SDS011;16102;57.138;-2.118;2022-11-15T03:35:48;13.45;;;6.43;;
29002;SDS011;16102;57.138;-2.118;2022-11-15T03:38:20;8.68;;;5.40;;
29002;SDS011;16102;57.138;-2.118;2022-11-15T03:40:59;11.73;;;4.95;;
29002;SDS011;16102;57.138;-2.118;2022-11-15T03:43:41;10.88;;;6.00;;
29002;SDS011;16102;57.138;-2.118;2022-11-15T03:46:26;10.50;;;5.65;;
29002;SDS011;16102;57.138;-2.118;2022-11-15T03:49:15;10.68;;;5.30;;
29002;SDS011;16102;57.138;-2.118;2022-11-15T03:51:55;14.45;;;6.68;;
29002;SDS011;16102;57.138;-2.118;2022-11-15T03:54:24;12.02;;;6.13;;
29002;SDS011;16102;57.138;-2.118;2022-11-15T03:56:51;12.52;;;7.32;;
29002;SDS011;16102;57.138;-2.118;2022-11-15T03:59:18;8.95;;;5.25;;
29002;SDS011;16102;57.138;-2.118;2022-11-15T04:01:45;15.00;;;7.32;;
29002;SDS011;16102;57.138;-2.118;2022-11-15T04:04:12;10.70;;;6.82;;
29002;SDS011;16102;57.138;-2.118;2022-11-15T04:06:39;15.23;;;8.73;;
29002;SDS011;16102;57.138;-2.118;2022-11-15T04:09:06;15.13;;;6.38;;
29002;SDS011;16102;57.138;-2.118;2022-11-15T04:11:33;18.65;;;8.32;;
29002;SDS011;16102;57.138;-2.118;2022-11-15T04:14:00;16.88;;;8.98;;
29002;SDS011;16102;57.138;-2.118;2022-11-15T04:16:28;26.20;;;12.48;;
29002;SDS011;16102;57.138;-2.118;2022-11-15T04:18:55;16.15;;;8.40;;
29002;SDS011;16102;57.138;-2.118;2022-11-15T04:21:40;11.10;;;7.00;;
29002;SDS011;16102;57.138;-2.118;2022-11-15T04:24:26;11.80;;;6.70;;
29002;SDS011;16102;57.138;-2.118;2022-11-15T04:26:53;11.15;;;8.10;;
29002;SDS011;16102;57.138;-2.118;2022-11-15T04:29:20;21.30;;;9.45;;
29002;SDS011;16102;57.138;-2.118;2022-11-15T04:32:05;13.80;;;7.95;;
29002;SDS011;16102;57.138;-2.118;2022-11-15T04:34:33;14.98;;;7.25;;
29002;SDS011;16102;57.138;-2.118;2022-11-15T04:37:00;11.82;;;6.88;;
29002;SDS011;16102;57.138;-2.118;2022-11-15T04:39:39;10.13;;;6.47;;
29002;SDS011;16102;57.138;-2.118;2022-11-15T04:42:07;12.23;;;7.00;;
29002;SDS011;16102;57.138;-2.118;2022-11-15T04:44:35;14.07;;;7.93;;
29002;SDS011;16102;57.138;-2.118;2022-11-15T04:47:02;16.52;;;7.68;;
29002;SDS011;16102;57.138;-2.118;2022-11-15T04:49:29;14.23;;;8.10;;
29002;SDS011;16102;57.138;-2.118;2022-11-15T04:51:56;19.92;;;8.95;;
29002;SDS011;16102;57.138;-2.118;2022-11-15T04:54:23;14.85;;;7.85;;
29002;SDS011;16102;57.138;-2.118;2022-11-15T04:56:50;15.57;;;8.50;;
29002;SDS011;16102;57.138;-2.118;2022-11-15T04:59:17;15.65;;;9.25;;
29002;SDS011;16102;57.138;-2.118;2022-11-15T05:01:44;13.88;;;7.15;;
29002;SDS011;16102;57.138;-2.118;2022-11-15T05:04:11;11.82;;;7.70;;
29002;SDS011;16102;57.138;-2.118;2022-11-15T05:06:48;16.15;;;9.38;;
29002;SDS011;16102;57.138;-2.118;2022-11-15T05:09:19;14.45;;;8.15;;
29002;SDS011;16102;57.138;-2.118;2022-11-15T05:11:47;16.42;;;8.95;;
29002;SDS011;16102;57.138;-2.118;2022-11-15T05:14:14;19.02;;;10.27;;
29002;SDS011;16102;57.138;-2.118;2022-11-15T05:16:42;18.15;;;9.70;;
29002;SDS011;16102;57.138;-2.118;2022-11-15T05:19:09;13.40;;;7.68;;
29002;SDS011;16102;57.138;-2.118;2022-11-15T05:21:36;14.25;;;7.45;;
29002;SDS011;16102;57.138;-2.118;2022-11-15T05:24:03;16.17;;;8.98;;
29002;SDS011;16102;57.138;-2.118;2022-11-15T05:26:30;18.20;;;9.02;;
29002;SDS011;16102;57.138;-2.118;2022-11-15T05:28:58;17.23;;;10.23;;
29002;SDS011;16102;57.138;-2.118;2022-11-15T05:31:26;14.23;;;8.15;;
29002;SDS011;16102;57.138;-2.118;2022-11-15T05:33:53;18.20;;;8.43;;
29002;SDS011;16102;57.138;-2.118;2022-11-15T05:36:39;10.60;;;6.68;;
29002;SDS011;16102;57.138;-2.118;2022-11-15T05:39:08;16.57;;;10.10;;
29002;SDS011;16102;57.138;-2.118;2022-11-15T05:41:39;13.88;;;8.18;;
29002;SDS011;16102;57.138;-2.118;2022-11-15T05:44:22;21.60;;;11.52;;
29002;SDS011;16102;57.138;-2.118;2022-11-15T05:46:51;17.83;;;10.80;;
29002;SDS011;16102;57.138;-2.118;2022-11-15T05:49:22;22.00;;;11.70;;
29002;SDS011;16102;57.138;-2.118;2022-11-15T05:51:51;16.45;;;10.25;;
29002;SDS011;16102;57.138;-2.118;2022-11-15T05:54:19;17.08;;;9.93;;
29002;SDS011;16102;57.138;-2.118;2022-11-15T05:56:47;22.35;;;11.75;;
29002;SDS011;16102;57.138;-2.118;2022-11-15T05:59:15;18.88;;;10.32;;
29002;SDS011;16102;57.138;-2.118;2022-11-15T06:01:43;20.80;;;12.27;;
29002;SDS011;16102;57.138;-2.118;2022-11-15T06:04:10;17.77;;;10.45;;
29002;SDS011;16102;57.138;-2.118;2022-11-15T06:06:37;21.77;;;9.77;;
29002;SDS011;16102;57.138;-2.118;2022-11-15T06:09:03;20.27;;;11.40;;
29002;SDS011;16102;57.138;-2.118;2022-11-15T06:11:30;25.67;;;13.23;;
29002;SDS011;16102;57.138;-2.118;2022-11-15T06:13:57;18.33;;;11.23;;
29002;SDS011;16102;57.138;-2.118;2022-11-15T06:16:24;13.82;;;9.77;;
29002;SDS011;16102;57.138;-2.118;2022-11-15T06:18:51;24.17;;;11.75;;
29002;SDS011;16102;57.138;-2.118;2022-11-15T06:21:18;19.42;;;9.82;;
29002;SDS011;16102;57.138;-2.118;2022-11-15T06:23:45;19.52;;;11.18;;
29002;SDS011;16102;57.138;-2.118;2022-11-15T06:26:12;28.30;;;12.57;;
29002;SDS011;16102;57.138;-2.118;2022-11-15T06:28:39;18.05;;;11.38;;
29002;SDS011;16102;57.138;-2.118;2022-11-15T06:31:08;17.52;;;10.68;;
29002;SDS011;16102;57.138;-2.118;2022-11-15T06:33:37;19.02;;;11.88;;
29002;SDS011;16102;57.138;-2.118;2022-11-15T06:36:06;20.77;;;13.65;;
29002;SDS011;16102;57.138;-2.118;2022-11-15T06:38:42;22.30;;;12.27;;
29002;SDS011;16102;57.138;-2.118;2022-11-15T06:41:10;13.20;;;9.25;;
29002;SDS011;16102;57.138;-2.118;2022-11-15T06:43:39;16.75;;;10.35;;
29002;SDS011;16102;57.138;-2.118;2022-11-15T06:46:06;13.98;;;9.82;;
29002;SDS011;16102;57.138;-2.118;2022-11-15T06:48:34;18.20;;;11.40;;
29002;SDS011;16102;57.138;-2.118;2022-11-15T06:51:03;31.95;;;13.38;;
29002;SDS011;16102;57.138;-2.118;2022-11-15T06:53:31;17.83;;;10.20;;
29002;SDS011;16102;57.138;-2.118;2022-11-15T06:56:00;16.85;;;11.07;;
29002;SDS011;16102;57.138;-2.118;2022-11-15T06:58:28;16.30;;;10.18;;
29002;SDS011;16102;57.138;-2.118;2022-11-15T07:00:59;20.83;;;10.80;;
29002;SDS011;16102;57.138;-2.118;2022-11-15T07:03:28;14.63;;;9.73;;
29002;SDS011;16102;57.138;-2.118;2022-11-15T07:05:56;17.23;;;10.43;;
29002;SDS011;16102;57.138;-2.118;2022-11-15T07:08:31;20.13;;;10.77;;
29002;SDS011;16102;57.138;-2.118;2022-11-15T07:10:59;17.48;;;8.68;;
29002;SDS011;16102;57.138;-2.118;2022-11-15T07:13:28;16.92;;;9.02;;
29002;SDS011;16102;57.138;-2.118;2022-11-15T07:16:04;13.75;;;8.43;;
29002;SDS011;16102;57.138;-2.118;2022-11-15T07:18:36;14.05;;;8.05;;
29002;SDS011;16102;57.138;-2.118;2022-11-15T07:21:06;16.48;;;8.93;;
29002;SDS011;16102;57.138;-2.118;2022-11-15T07:23:38;24.75;;;10.35;;
29002;SDS011;16102;57.138;-2.118;2022-11-15T07:26:05;15.32;;;7.80;;
29002;SDS011;16102;57.138;-2.118;2022-11-15T07:28:33;18.52;;;9.40;;
29002;SDS011;16102;57.138;-2.118;2022-11-15T07:31:04;17.17;;;9.68;;
29002;SDS011;16102;57.138;-2.118;2022-11-15T07:33:33;21.48;;;9.90;;
29002;SDS011;16102;57.138;-2.118;2022-11-15T07:36:01;15.60;;;6.97;;
29002;SDS011;16102;57.138;-2.118;2022-11-15T07:38:30;14.82;;;7.68;;
29002;SDS011;16102;57.138;-2.118;2022-11-15T07:41:02;18.13;;;9.15;;
29002;SDS011;16102;57.138;-2.118;2022-11-15T07:43:30;17.92;;;8.18;;
29002;SDS011;16102;57.138;-2.118;2022-11-15T07:46:09;23.42;;;10.10;;
29002;SDS011;16102;57.138;-2.118;2022-11-15T07:48:36;27.83;;;12.07;;
29002;SDS011;16102;57.138;-2.118;2022-11-15T07:51:13;17.00;;;8.48;;
29002;SDS011;16102;57.138;-2.118;2022-11-15T07:53:42;16.80;;;9.68;;
29002;SDS011;16102;57.138;-2.118;2022-11-15T07:56:12;23.67;;;12.40;;
29002;SDS011;16102;57.138;-2.118;2022-11-15T07:58:39;21.92;;;11.65;;
29002;SDS011;16102;57.138;-2.118;2022-11-15T08:01:08;19.88;;;9.65;;
29002;SDS011;16102;57.138;-2.118;2022-11-15T08:03:36;19.00;;;7.95;;
29002;SDS011;16102;57.138;-2.118;2022-11-15T08:06:04;14.85;;;8.23;;
29002;SDS011;16102;57.138;-2.118;2022-11-15T08:08:31;16.65;;;9.07;;
29002;SDS011;16102;57.138;-2.118;2022-11-15T08:10:58;19.70;;;9.93;;
29002;SDS011;16102;57.138;-2.118;2022-11-15T08:13:26;16.25;;;9.10;;
29002;SDS011;16102;57.138;-2.118;2022-11-15T08:15:59;19.25;;;9.15;;
29002;SDS011;16102;57.138;-2.118;2022-11-15T08:18:27;24.77;;;10.70;;
29002;SDS011;16102;57.138;-2.118;2022-11-15T08:20:57;17.60;;;9.07;;
29002;SDS011;16102;57.138;-2.118;2022-11-15T08:23:25;19.48;;;8.48;;
29002;SDS011;16102;57.138;-2.118;2022-11-15T08:25:52;17.25;;;8.07;;
29002;SDS011;16102;57.138;-2.118;2022-11-15T08:28:24;16.33;;;9.30;;
29002;SDS011;16102;57.138;-2.118;2022-11-15T08:30:51;23.92;;;9.85;;
29002;SDS011;16102;57.138;-2.118;2022-11-15T08:33:18;13.30;;;7.45;;
29002;SDS011;16102;57.138;-2.118;2022-11-15T08:35:45;14.07;;;8.35;;
29002;SDS011;16102;57.138;-2.118;2022-11-15T08:38:12;18.20;;;9.73;;
29002;SDS011;16102;57.138;-2.118;2022-11-15T08:40:39;22.38;;;11.27;;
29002;SDS011;16102;57.138;-2.118;2022-11-15T08:43:07;17.17;;;10.00;;
29002;SDS011;16102;57.138;-2.118;2022-11-15T08:45:34;17.65;;;9.45;;
29002;SDS011;16102;57.138;-2.118;2022-11-15T08:48:02;21.30;;;10.95;;
29002;SDS011;16102;57.138;-2.118;2022-11-15T08:50:30;15.40;;;8.35;;
29002;SDS011;16102;57.138;-2.118;2022-11-15T08:52:57;22.73;;;11.48;;
29002;SDS011;16102;57.138;-2.118;2022-11-15T08:55:24;20.40;;;9.68;;
29002;SDS011;16102;57.138;-2.118;2022-11-15T08:57:51;14.20;;;9.02;;
29002;SDS011;16102;57.138;-2.118;2022-11-15T09:00:18;23.58;;;11.20;;
29002;SDS011;16102;57.138;-2.118;2022-11-15T09:02:46;20.75;;;10.60;;
29002;SDS011;16102;57.138;-2.118;2022-11-15T09:05:13;21.02;;;10.50;;
29002;SDS011;16102;57.138;-2.118;2022-11-15T09:07:41;13.32;;;9.35;;
29002;SDS011;16102;57.138;-2.118;2022-11-15T09:10:09;19.30;;;9.82;;
29002;SDS011;16102;57.138;-2.118;2022-11-15T09:12:36;16.40;;;9.07;;
29002;SDS011;16102;57.138;-2.118;2022-11-15T09:15:04;20.48;;;9.30;;
29002;SDS011;16102;57.138;-2.118;2022-11-15T09:17:32;20.55;;;10.80;;
29002;SDS011;16102;57.138;-2.118;2022-11-15T09:19:59;15.57;;;8.48;;
29002;SDS011;16102;57.138;-2.118;2022-11-15T09:22:26;18.20;;;8.52;;
29002;SDS011;16102;57.138;-2.118;2022-11-15T09:24:53;15.73;;;8.55;;
29002;SDS011;16102;57.138;-2.118;2022-11-15T09:27:20;23.25;;;12.77;;
29002;SDS011;16102;57.138;-2.118;2022-11-15T09:29:46;17.00;;;9.20;;
29002;SDS011;16102;57.138;-2.118;2022-11-15T09:32:13;17.02;;;9.93;;
29002;SDS011;16102;57.138;-2.118;2022-11-15T09:34:40;19.10;;;8.75;;
29002;SDS011;16102;57.138;-2.118;2022-11-15T09:37:07;15.75;;;8.35;;
29002;SDS011;16102;57.138;-2.118;2022-11-15T09:39:34;12.18;;;7.47;;
29002;SDS011;16102;57.138;-2.118;2022-11-15T09:49:50;14.65;;;8.00;;
29002;SDS011;16102;57.138;-2.118;2022-11-15T09:52:23;18.55;;;9.73;;
29002;SDS011;16102;57.138;-2.118;2022-11-15T09:54:51;19.73;;;9.45;;
29002;SDS011;16102;57.138;-2.118;2022-11-15T09:57:30;12.35;;;7.53;;
29002;SDS011;16102;57.138;-2.118;2022-11-15T10:05:54;13.40;;;7.53;;
29002;SDS011;16102;57.138;-2.118;2022-11-15T10:10:59;20.55;;;11.50;;
29002;SDS011;16102;57.138;-2.118;2022-11-15T10:13:49;16.67;;;9.32;;
29002;SDS011;16102;57.138;-2.118;2022-11-15T10:21:43;12.85;;;7.05;;
29002;SDS011;16102;57.138;-2.118;2022-11-15T10:24:19;15.05;;;8.18;;
29002;SDS011;16102;57.138;-2.118;2022-11-15T10:26:51;21.63;;;10.35;;
29002;SDS011;16102;57.138;-2.118;2022-11-15T10:29:22;16.58;;;8.77;;
29002;SDS011;16102;57.138;-2.118;2022-11-15T10:31:52;13.75;;;7.22;;
29002;SDS011;16102;57.138;-2.118;2022-11-15T10:34:20;20.05;;;9.55;;
29002;SDS011;16102;57.138;-2.118;2022-11-15T10:39:25;22.67;;;11.40;;
29002;SDS011;16102;57.138;-2.118;2022-11-15T10:41:52;15.00;;;7.63;;
29002;SDS011;16102;57.138;-2.118;2022-11-15T10:44:24;18.00;;;8.90;;
29002;SDS011;16102;57.138;-2.118;2022-11-15T10:49:26;21.98;;;11.13;;
29002;SDS011;16102;57.138;-2.118;2022-11-15T10:51:56;17.90;;;8.73;;
29002;SDS011;16102;57.138;-2.118;2022-11-15T10:54:34;13.23;;;7.82;;
29002;SDS011;16102;57.138;-2.118;2022-11-15T10:57:19;13.93;;;8.05;;
29002;SDS011;16102;57.138;-2.118;2022-11-15T10:59:53;18.10;;;9.27;;
29002;SDS011;16102;57.138;-2.118;2022-11-15T11:02:28;16.58;;;7.82;;
29002;SDS011;16102;57.138;-2.118;2022-11-15T11:05:03;14.65;;;7.63;;
29002;SDS011;16102;57.138;-2.118;2022-11-15T11:07:33;12.82;;;7.47;;
29002;SDS011;16102;57.138;-2.118;2022-11-15T11:10:05;13.95;;;7.07;;
29002;SDS011;16102;57.138;-2.118;2022-11-15T11:15:57;10.65;;;6.20;;
29002;SDS011;16102;57.138;-2.118;2022-11-15T11:30:24;9.40;;;5.00;;
29002;SDS011;16102;57.138;-2.118;2022-11-15T11:42:00;12.30;;;4.82;;
29002;SDS011;16102;57.138;-2.118;2022-11-15T11:47:19;7.75;;;3.30;;
29002;SDS011;16102;57.138;-2.118;2022-11-15T11:49:51;7.32;;;2.63;;
29002;SDS011;16102;57.138;-2.118;2022-11-15T11:55:15;7.10;;;2.70;;
29002;SDS011;16102;57.138;-2.118;2022-11-15T11:58:25;11.45;;;2.22;;
29002;SDS011;16102;57.138;-2.118;2022-11-15T12:06:19;7.40;;;1.70;;
29002;SDS011;16102;57.138;-2.118;2022-11-15T12:08:56;3.17;;;0.95;;
29002;SDS011;16102;57.138;-2.118;2022-11-15T12:13:58;7.35;;;2.38;;
29002;SDS011;16102;57.138;-2.118;2022-11-15T12:16:31;4.80;;;1.85;;
29002;SDS011;16102;57.138;-2.118;2022-11-15T12:19:00;9.27;;;1.95;;
29002;SDS011;16102;57.138;-2.118;2022-11-15T12:27:05;5.45;;;1.52;;
29002;SDS011;16102;57.138;-2.118;2022-11-15T12:29:47;4.43;;;1.55;;
29002;SDS011;16102;57.138;-2.118;2022-11-15T12:32:31;7.35;;;1.40;;
29002;SDS011;16102;57.138;-2.118;2022-11-15T12:35:01;8.73;;;2.53;;
29002;SDS011;16102;57.138;-2.118;2022-11-15T12:40:21;3.22;;;1.02;;
29002;SDS011;16102;57.138;-2.118;2022-11-15T12:45:43;4.10;;;1.60;;
29002;SDS011;16102;57.138;-2.118;2022-11-15T12:58:42;6.15;;;1.92;;
29002;SDS011;16102;57.138;-2.118;2022-11-15T13:06:52;5.80;;;1.38;;
29002;SDS011;16102;57.138;-2.118;2022-11-15T13:22:27;5.70;;;1.63;;
29002;SDS011;16102;57.138;-2.118;2022-11-15T13:25:21;7.57;;;2.15;;
29002;SDS011;16102;57.138;-2.118;2022-11-15T13:28:03;10.02;;;1.92;;
29002;SDS011;16102;57.138;-2.118;2022-11-15T13:30:36;12.98;;;2.65;;
29002;SDS011;16102;57.138;-2.118;2022-11-15T13:33:13;11.07;;;2.80;;
29002;SDS011;16102;57.138;-2.118;2022-11-15T13:35:45;7.78;;;1.85;;
29002;SDS011;16102;57.138;-2.118;2022-11-15T13:38:28;8.38;;;1.88;;
29002;SDS011;16102;57.138;-2.118;2022-11-15T13:41:00;5.18;;;1.55;;
29002;SDS011;16102;57.138;-2.118;2022-11-15T13:43:56;7.80;;;2.00;;
29002;SDS011;16102;57.138;-2.118;2022-11-15T13:46:25;9.70;;;1.90;;
29002;SDS011;16102;57.138;-2.118;2022-11-15T13:49:00;9.30;;;2.17;;
29002;SDS011;16102;57.138;-2.118;2022-11-15T13:51:44;6.93;;;2.00;;
29002;SDS011;16102;57.138;-2.118;2022-11-15T13:54:31;6.13;;;2.30;;
29002;SDS011;16102;57.138;-2.118;2022-11-15T13:57:03;5.68;;;1.73;;
29002;SDS011;16102;57.138;-2.118;2022-11-15T13:59:45;7.50;;;1.95;;
29002;SDS011;16102;57.138;-2.118;2022-11-15T14:02:20;15.77;;;3.70;;
29002;SDS011;16102;57.138;-2.118;2022-11-15T14:07:25;14.98;;;3.08;;
29002;SDS011;16102;57.138;-2.118;2022-11-15T14:09:55;7.43;;;2.53;;
29002;SDS011;16102;57.138;-2.118;2022-11-15T14:14:52;11.40;;;2.65;;
29002;SDS011;16102;57.138;-2.118;2022-11-15T14:17:43;11.18;;;3.10;;
29002;SDS011;16102;57.138;-2.118;2022-11-15T14:20:28;10.85;;;2.85;;
29002;SDS011;16102;57.138;-2.118;2022-11-15T14:23:04;8.05;;;1.67;;
29002;SDS011;16102;57.138;-2.118;2022-11-15T14:25:54;15.15;;;3.17;;
29002;SDS011;16102;57.138;-2.118;2022-11-15T14:30:50;15.30;;;3.88;;
29002;SDS011;16102;57.138;-2.118;2022-11-15T14:33:27;9.55;;;2.10;;
29002;SDS011;16102;57.138;-2.118;2022-11-15T14:36:16;19.52;;;4.38;;
29002;SDS011;16102;57.138;-2.118;2022-11-15T14:38:47;6.90;;;2.17;;
29002;SDS011;16102;57.138;-2.118;2022-11-15T14:41:18;12.40;;;3.10;;
29002;SDS011;16102;57.138;-2.118;2022-11-15T14:43:46;11.52;;;1.92;;
29002;SDS011;16102;57.138;-2.118;2022-11-15T14:46:14;18.08;;;3.13;;
29002;SDS011;16102;57.138;-2.118;2022-11-15T14:48:41;11.88;;;2.15;;
29002;SDS011;16102;57.138;-2.118;2022-11-15T14:51:16;15.45;;;2.60;;
29002;SDS011;16102;57.138;-2.118;2022-11-15T14:53:44;9.77;;;2.40;;
29002;SDS011;16102;57.138;-2.118;2022-11-15T14:56:11;13.55;;;2.88;;
29002;SDS011;16102;57.138;-2.118;2022-11-15T14:58:39;20.13;;;3.17;;
29002;SDS011;16102;57.138;-2.118;2022-11-15T15:01:25;17.65;;;3.08;;
29002;SDS011;16102;57.138;-2.118;2022-11-15T15:03:52;14.18;;;2.85;;
29002;SDS011;16102;57.138;-2.118;2022-11-15T15:06:25;13.15;;;2.67;;
29002;SDS011;16102;57.138;-2.118;2022-11-15T15:08:52;16.42;;;2.60;;
29002;SDS011;16102;57.138;-2.118;2022-11-15T15:13:50;9.70;;;1.98;;
29002;SDS011;16102;57.138;-2.118;2022-11-15T15:16:18;13.68;;;2.70;;
29002;SDS011;16102;57.138;-2.118;2022-11-15T15:18:45;18.60;;;2.97;;
29002;SDS011;16102;57.138;-2.118;2022-11-15T15:21:23;15.02;;;2.58;;
29002;SDS011;16102;57.138;-2.118;2022-11-15T15:23:54;14.07;;;2.33;;
29002;SDS011;16102;57.138;-2.118;2022-11-15T15:26:24;9.25;;;2.38;;
29002;SDS011;16102;57.138;-2.118;2022-11-15T15:28:52;14.52;;;3.10;;
29002;SDS011;16102;57.138;-2.118;2022-11-15T15:31:19;14.32;;;2.63;;
29002;SDS011;16102;57.138;-2.118;2022-11-15T15:33:45;22.88;;;4.15;;
29002;SDS011;16102;57.138;-2.118;2022-11-15T15:36:13;21.20;;;3.72;;
29002;SDS011;16102;57.138;-2.118;2022-11-15T15:38:44;11.48;;;2.90;;
29002;SDS011;16102;57.138;-2.118;2022-11-15T15:41:16;11.60;;;2.80;;
29002;SDS011;16102;57.138;-2.118;2022-11-15T15:43:43;23.13;;;4.20;;
29002;SDS011;16102;57.138;-2.118;2022-11-15T15:46:14;13.23;;;3.42;;
29002;SDS011;16102;57.138;-2.118;2022-11-15T15:48:43;17.48;;;3.78;;
29002;SDS011;16102;57.138;-2.118;2022-11-15T15:51:10;16.85;;;3.40;;
29002;SDS011;16102;57.138;-2.118;2022-11-15T15:53:45;20.55;;;3.30;;
29002;SDS011;16102;57.138;-2.118;2022-11-15T15:56:13;10.77;;;2.38;;
29002;SDS011;16102;57.138;-2.118;2022-11-15T15:58:40;11.75;;;2.00;;
29002;SDS011;16102;57.138;-2.118;2022-11-15T16:01:07;17.63;;;4.05;;
29002;SDS011;16102;57.138;-2.118;2022-11-15T16:03:34;9.20;;;1.50;;
29002;SDS011;16102;57.138;-2.118;2022-11-15T16:06:01;12.27;;;2.85;;
29002;SDS011;16102;57.138;-2.118;2022-11-15T16:08:30;13.07;;;2.85;;
29002;SDS011;16102;57.138;-2.118;2022-11-15T16:11:13;15.05;;;2.70;;
29002;SDS011;16102;57.138;-2.118;2022-11-15T16:13:40;17.70;;;3.08;;
29002;SDS011;16102;57.138;-2.118;2022-11-15T16:16:07;14.18;;;2.58;;
29002;SDS011;16102;57.138;-2.118;2022-11-15T16:18:38;11.95;;;2.67;;
29002;SDS011;16102;57.138;-2.118;2022-11-15T16:21:05;13.85;;;3.13;;
29002;SDS011;16102;57.138;-2.118;2022-11-15T16:23:34;13.20;;;2.90;;
29002;SDS011;16102;57.138;-2.118;2022-11-15T16:26:01;14.32;;;3.13;;
29002;SDS011;16102;57.138;-2.118;2022-11-15T16:28:30;8.10;;;2.30;;
29002;SDS011;16102;57.138;-2.118;2022-11-15T16:31:00;18.15;;;3.17;;
29002;SDS011;16102;57.138;-2.118;2022-11-15T16:33:31;18.60;;;2.88;;
29002;SDS011;16102;57.138;-2.118;2022-11-15T16:35:59;19.33;;;3.35;;
29002;SDS011;16102;57.138;-2.118;2022-11-15T16:38:27;19.17;;;3.28;;
29002;SDS011;16102;57.138;-2.118;2022-11-15T16:40:54;14.50;;;2.80;;
29002;SDS011;16102;57.138;-2.118;2022-11-15T16:43:21;19.10;;;3.17;;
29002;SDS011;16102;57.138;-2.118;2022-11-15T16:45:48;16.73;;;3.30;;
29002;SDS011;16102;57.138;-2.118;2022-11-15T16:48:23;23.25;;;3.55;;
29002;SDS011;16102;57.138;-2.118;2022-11-15T16:50:55;24.45;;;3.95;;
29002;SDS011;16102;57.138;-2.118;2022-11-15T16:53:24;16.77;;;3.35;;
29002;SDS011;16102;57.138;-2.118;2022-11-15T16:55:52;17.92;;;3.35;;
29002;SDS011;16102;57.138;-2.118;2022-11-15T16:58:20;22.38;;;3.97;;
29002;SDS011;16102;57.138;-2.118;2022-11-15T17:00:51;12.82;;;3.28;;
29002;SDS011;16102;57.138;-2.118;2022-11-15T17:03:20;23.50;;;4.93;;
29002;SDS011;16102;57.138;-2.118;2022-11-15T17:05:50;19.77;;;3.38;;
29002;SDS011;16102;57.138;-2.118;2022-11-15T17:08:17;21.45;;;4.05;;
29002;SDS011;16102;57.138;-2.118;2022-11-15T17:10:47;14.40;;;3.20;;